sensor_id;sensor_type;location;lat;lon;timestamp;temperature;humidity
47414;DHT22;33163;0.000;0.000;2023-09-12T00:00:41;24.50;87.20
47414;DHT22;33163;0.000;0.000;2023-09-12T00:03:10;24.50;87.20
47414;DHT22;33163;0.000;0.000;2023-09-12T00:05:37;24.50;87.10
47414;DHT22;33163;0.000;0.000;2023-09-12T00:08:04;24.50;87.10
47414;DHT22;33163;0.000;0.000;2023-09-12T00:10:31;24.50;87.10
47414;DHT22;33163;0.000;0.000;2023-09-12T00:12:58;24.50;87.20
47414;DHT22;33163;0.000;0.000;2023-09-12T00:15:28;24.50;87.20
47414;DHT22;33163;0.000;0.000;2023-09-12T00:17:54;24.50;87.20
47414;DHT22;33163;0.000;0.000;2023-09-12T00:20:23;24.50;87.20
47414;DHT22;33163;0.000;0.000;2023-09-12T00:22:49;24.50;87.10
47414;DHT22;33163;0.000;0.000;2023-09-12T00:25:16;24.50;87.10
47414;DHT22;33163;0.000;0.000;2023-09-12T00:27:43;24.50;87.10
47414;DHT22;33163;0.000;0.000;2023-09-12T00:30:11;24.50;87.10
47414;DHT22;33163;0.000;0.000;2023-09-12T00:32:38;24.50;87.10
47414;DHT22;33163;0.000;0.000;2023-09-12T00:35:05;24.50;87.10
47414;DHT22;33163;0.000;0.000;2023-09-12T00:37:34;24.50;87.10
47414;DHT22;33163;0.000;0.000;2023-09-12T00:40:00;24.50;87.10
47414;DHT22;33163;0.000;0.000;2023-09-12T00:42:28;24.50;87.10
47414;DHT22;33163;0.000;0.000;2023-09-12T00:44:54;24.50;87.10
47414;DHT22;33163;0.000;0.000;2023-09-12T00:47:22;24.50;87.10
47414;DHT22;33163;0.000;0.000;2023-09-12T00:49:49;24.50;87.00
47414;DHT22;33163;0.000;0.000;2023-09-12T00:52:17;24.50;87.00
47414;DHT22;33163;0.000;0.000;2023-09-12T00:54:46;24.50;87.00
47414;DHT22;33163;0.000;0.000;2023-09-12T00:57:13;24.50;86.90
47414;DHT22;33163;0.000;0.000;2023-09-12T00:59:40;24.50;87.00
47414;DHT22;33163;0.000;0.000;2023-09-12T01:02:07;24.50;86.90
47414;DHT22;33163;0.000;0.000;2023-09-12T01:04:34;24.50;86.90
47414;DHT22;33163;0.000;0.000;2023-09-12T01:07:03;24.50;86.90
47414;DHT22;33163;0.000;0.000;2023-09-12T01:09:30;24.50;86.90
47414;DHT22;33163;0.000;0.000;2023-09-12T01:11:58;24.50;87.50
47414;DHT22;33163;0.000;0.000;2023-09-12T01:14:25;24.50;86.80
47414;DHT22;33163;0.000;0.000;2023-09-12T01:16:52;24.50;86.80
47414;DHT22;33163;0.000;0.000;2023-09-12T01:19:19;24.50;86.80
47414;DHT22;33163;0.000;0.000;2023-09-12T01:22:11;24.50;86.80
47414;DHT22;33163;0.000;0.000;2023-09-12T01:25:07;24.50;86.70
47414;DHT22;33163;0.000;0.000;2023-09-12T01:27:38;24.50;86.70
47414;DHT22;33163;0.000;0.000;2023-09-12T01:30:08;24.50;86.70
47414;DHT22;33163;0.000;0.000;2023-09-12T01:32:35;24.50;86.70
47414;DHT22;33163;0.000;0.000;2023-09-12T01:35:02;24.50;86.70
47414;DHT22;33163;0.000;0.000;2023-09-12T01:37:30;24.50;86.70
47414;DHT22;33163;0.000;0.000;2023-09-12T01:39:57;24.50;86.70
47414;DHT22;33163;0.000;0.000;2023-09-12T01:42:26;24.40;86.60
47414;DHT22;33163;0.000;0.000;2023-09-12T01:44:56;24.50;86.60
47414;DHT22;33163;0.000;0.000;2023-09-12T01:47:24;24.40;86.60
47414;DHT22;33163;0.000;0.000;2023-09-12T01:49:54;24.40;86.60
47414;DHT22;33163;0.000;0.000;2023-09-12T01:52:22;24.40;86.60
47414;DHT22;33163;0.000;0.000;2023-09-12T01:54:50;24.40;86.50
47414;DHT22;33163;0.000;0.000;2023-09-12T01:57:17;24.40;86.50
47414;DHT22;33163;0.000;0.000;2023-09-12T01:59:46;24.40;86.60
47414;DHT22;33163;0.000;0.000;2023-09-12T02:02:14;24.40;86.50
47414;DHT22;33163;0.000;0.000;2023-09-12T02:04:41;24.40;86.50
47414;DHT22;33163;0.000;0.000;2023-09-12T02:07:08;24.40;86.50
47414;DHT22;33163;0.000;0.000;2023-09-12T02:09:35;24.40;86.50
47414;DHT22;33163;0.000;0.000;2023-09-12T02:12:01;24.40;86.50
47414;DHT22;33163;0.000;0.000;2023-09-12T02:14:28;24.40;86.50
47414;DHT22;33163;0.000;0.000;2023-09-12T02:16:55;24.40;86.50
47414;DHT22;33163;0.000;0.000;2023-09-12T02:19:23;24.40;86.50
47414;DHT22;33163;0.000;0.000;2023-09-12T02:21:50;24.40;86.40
47414;DHT22;33163;0.000;0.000;2023-09-12T02:24:16;24.40;86.50
47414;DHT22;33163;0.000;0.000;2023-09-12T02:26:46;24.40;86.40
47414;DHT22;33163;0.000;0.000;2023-09-12T02:29:13;24.40;86.40
47414;DHT22;33163;0.000;0.000;2023-09-12T02:31:40;24.40;86.40
47414;DHT22;33163;0.000;0.000;2023-09-12T02:34:07;24.40;86.40
47414;DHT22;33163;0.000;0.000;2023-09-12T02:36:35;24.40;86.40
47414;DHT22;33163;0.000;0.000;2023-09-12T02:39:01;24.40;86.40
47414;DHT22;33163;0.000;0.000;2023-09-12T02:41:28;24.40;86.40
47414;DHT22;33163;0.000;0.000;2023-09-12T02:43:55;24.40;86.40
47414;DHT22;33163;0.000;0.000;2023-09-12T02:46:22;24.40;86.40
47414;DHT22;33163;0.000;0.000;2023-09-12T02:48:48;24.40;86.40
47414;DHT22;33163;0.000;0.000;2023-09-12T02:51:15;24.30;86.30
47414;DHT22;33163;0.000;0.000;2023-09-12T02:53:43;24.40;86.40
47414;DHT22;33163;0.000;0.000;2023-09-12T02:56:10;24.40;86.40
47414;DHT22;33163;0.000;0.000;2023-09-12T02:58:37;24.40;87.00
47414;DHT22;33163;0.000;0.000;2023-09-12T03:01:03;24.40;86.40
47414;DHT22;33163;0.000;0.000;2023-09-12T03:03:32;24.30;86.30
47414;DHT22;33163;0.000;0.000;2023-09-12T03:05:58;24.30;86.30
47414;DHT22;33163;0.000;0.000;2023-09-12T03:08:25;24.30;86.30
47414;DHT22;33163;0.000;0.000;2023-09-12T03:10:57;24.40;86.40
47414;DHT22;33163;0.000;0.000;2023-09-12T03:13:24;24.40;86.40
47414;DHT22;33163;0.000;0.000;2023-09-12T03:15:52;24.30;86.30
47414;DHT22;33163;0.000;0.000;2023-09-12T03:18:19;24.40;86.40
47414;DHT22;33163;0.000;0.000;2023-09-12T03:20:45;24.30;86.30
47414;DHT22;33163;0.000;0.000;2023-09-12T03:23:12;24.30;86.30
47414;DHT22;33163;0.000;0.000;2023-09-12T03:25:39;24.30;86.30
47414;DHT22;33163;0.000;0.000;2023-09-12T03:28:08;24.30;86.30
47414;DHT22;33163;0.000;0.000;2023-09-12T03:30:36;24.30;86.40
47414;DHT22;33163;0.000;0.000;2023-09-12T03:33:04;24.30;86.30
47414;DHT22;33163;0.000;0.000;2023-09-12T03:35:31;24.30;86.30
47414;DHT22;33163;0.000;0.000;2023-09-12T03:37:58;24.30;86.40
47414;DHT22;33163;0.000;0.000;2023-09-12T03:40:27;24.30;87.00
47414;DHT22;33163;0.000;0.000;2023-09-12T03:42:54;24.30;86.40
47414;DHT22;33163;0.000;0.000;2023-09-12T03:45:22;24.30;86.40
47414;DHT22;33163;0.000;0.000;2023-09-12T03:47:49;24.30;86.40
47414;DHT22;33163;0.000;0.000;2023-09-12T03:50:16;24.30;86.40
47414;DHT22;33163;0.000;0.000;2023-09-12T03:52:42;24.30;86.40
47414;DHT22;33163;0.000;0.000;2023-09-12T03:55:09;24.30;86.40
47414;DHT22;33163;0.000;0.000;2023-09-12T03:57:36;24.30;86.40
47414;DHT22;33163;0.000;0.000;2023-09-12T04:00:03;24.30;86.40
47414;DHT22;33163;0.000;0.000;2023-09-12T04:02:32;24.30;86.40
47414;DHT22;33163;0.000;0.000;2023-09-12T04:04:59;24.30;86.40
47414;DHT22;33163;0.000;0.000;2023-09-12T04:07:26;24.30;86.40
47414;DHT22;33163;0.000;0.000;2023-09-12T04:09:52;24.30;86.40
47414;DHT22;33163;0.000;0.000;2023-09-12T04:12:19;24.20;86.40
47414;DHT22;33163;0.000;0.000;2023-09-12T04:14:49;24.30;86.80
47414;DHT22;33163;0.000;0.000;2023-09-12T04:17:15;24.30;86.40
47414;DHT22;33163;0.000;0.000;2023-09-12T04:19:43;24.30;86.40
47414;DHT22;33163;0.000;0.000;2023-09-12T04:22:10;24.30;86.40
47414;DHT22;33163;0.000;0.000;2023-09-12T04:24:37;24.30;86.40
47414;DHT22;33163;0.000;0.000;2023-09-12T04:27:04;24.30;86.40
47414;DHT22;33163;0.000;0.000;2023-09-12T04:29:32;24.30;87.10
47414;DHT22;33163;0.000;0.000;2023-09-12T04:32:01;24.30;86.50
47414;DHT22;33163;0.000;0.000;2023-09-12T04:34:28;24.30;86.50
47414;DHT22;33163;0.000;0.000;2023-09-12T04:36:56;24.30;86.40
47414;DHT22;33163;0.000;0.000;2023-09-12T04:39:23;24.30;86.50
47414;DHT22;33163;0.000;0.000;2023-09-12T04:41:50;24.20;86.40
47414;DHT22;33163;0.000;0.000;2023-09-12T04:44:16;24.30;86.50
47414;DHT22;33163;0.000;0.000;2023-09-12T04:46:43;24.30;86.50
47414;DHT22;33163;0.000;0.000;2023-09-12T04:49:10;24.20;86.50
47414;DHT22;33163;0.000;0.000;2023-09-12T04:51:37;24.20;86.50
47414;DHT22;33163;0.000;0.000;2023-09-12T04:54:05;24.20;86.50
47414;DHT22;33163;0.000;0.000;2023-09-12T04:56:32;24.20;86.50
47414;DHT22;33163;0.000;0.000;2023-09-12T04:58:59;24.20;86.50
47414;DHT22;33163;0.000;0.000;2023-09-12T05:01:25;24.20;86.50
47414;DHT22;33163;0.000;0.000;2023-09-12T05:03:52;24.20;86.50
47414;DHT22;33163;0.000;0.000;2023-09-12T05:06:19;24.20;86.50
47414;DHT22;33163;0.000;0.000;2023-09-12T05:08:46;24.20;86.50
47414;DHT22;33163;0.000;0.000;2023-09-12T05:11:13;24.20;86.60
47414;DHT22;33163;0.000;0.000;2023-09-12T05:13:39;24.20;86.50
47414;DHT22;33163;0.000;0.000;2023-09-12T05:16:06;24.20;86.60
47414;DHT22;33163;0.000;0.000;2023-09-12T05:18:33;24.20;86.60
47414;DHT22;33163;0.000;0.000;2023-09-12T05:21:00;24.20;86.60
47414;DHT22;33163;0.000;0.000;2023-09-12T05:23:27;24.20;86.60
47414;DHT22;33163;0.000;0.000;2023-09-12T05:25:53;24.20;86.60
47414;DHT22;33163;0.000;0.000;2023-09-12T05:28:21;24.20;86.60
47414;DHT22;33163;0.000;0.000;2023-09-12T05:30:48;24.20;86.60
47414;DHT22;33163;0.000;0.000;2023-09-12T05:33:15;24.20;86.60
47414;DHT22;33163;0.000;0.000;2023-09-12T05:35:42;24.20;86.60
47414;DHT22;33163;0.000;0.000;2023-09-12T05:38:09;24.20;86.70
47414;DHT22;33163;0.000;0.000;2023-09-12T05:40:36;24.20;87.40
47414;DHT22;33163;0.000;0.000;2023-09-12T05:43:03;24.20;87.00
47414;DHT22;33163;0.000;0.000;2023-09-12T05:45:31;24.20;86.90
47414;DHT22;33163;0.000;0.000;2023-09-12T05:47:58;24.20;86.90
47414;DHT22;33163;0.000;0.000;2023-09-12T05:50:25;24.20;87.20
47414;DHT22;33163;0.000;0.000;2023-09-12T05:52:51;24.20;87.40
47414;DHT22;33163;0.000;0.000;2023-09-12T05:55:18;24.20;87.60
47414;DHT22;33163;0.000;0.000;2023-09-12T05:57:45;24.20;87.70
47414;DHT22;33163;0.000;0.000;2023-09-12T06:00:13;24.20;87.70
47414;DHT22;33163;0.000;0.000;2023-09-12T06:02:42;24.20;88.00
47414;DHT22;33163;0.000;0.000;2023-09-12T06:05:09;24.20;87.90
47414;DHT22;33163;0.000;0.000;2023-09-12T06:07:35;24.20;87.60
47414;DHT22;33163;0.000;0.000;2023-09-12T06:10:04;24.10;88.90
47414;DHT22;33163;0.000;0.000;2023-09-12T06:12:31;23.80;90.00
47414;DHT22;33163;0.000;0.000;2023-09-12T06:14:58;23.70;90.30
47414;DHT22;33163;0.000;0.000;2023-09-12T06:17:25;23.70;90.50
47414;DHT22;33163;0.000;0.000;2023-09-12T06:19:54;23.60;90.50
47414;DHT22;33163;0.000;0.000;2023-09-12T06:22:21;23.60;90.60
47414;DHT22;33163;0.000;0.000;2023-09-12T06:24:49;23.60;90.80
47414;DHT22;33163;0.000;0.000;2023-09-12T06:27:15;23.50;90.90
47414;DHT22;33163;0.000;0.000;2023-09-12T06:29:44;23.50;90.90
47414;DHT22;33163;0.000;0.000;2023-09-12T06:32:11;23.50;91.00
47414;DHT22;33163;0.000;0.000;2023-09-12T06:34:37;23.40;91.10
47414;DHT22;33163;0.000;0.000;2023-09-12T06:37:05;23.40;91.20
47414;DHT22;33163;0.000;0.000;2023-09-12T06:39:32;23.40;91.30
47414;DHT22;33163;0.000;0.000;2023-09-12T06:41:59;23.30;91.70
47414;DHT22;33163;0.000;0.000;2023-09-12T06:44:26;23.30;91.60
47414;DHT22;33163;0.000;0.000;2023-09-12T06:46:52;23.30;91.50
47414;DHT22;33163;0.000;0.000;2023-09-12T06:49:19;23.40;91.50
47414;DHT22;33163;0.000;0.000;2023-09-12T06:51:46;23.40;91.50
47414;DHT22;33163;0.000;0.000;2023-09-12T06:54:14;23.30;91.50
47414;DHT22;33163;0.000;0.000;2023-09-12T06:56:41;23.30;91.50
47414;DHT22;33163;0.000;0.000;2023-09-12T06:59:08;23.40;91.60
47414;DHT22;33163;0.000;0.000;2023-09-12T07:01:35;23.40;91.80
47414;DHT22;33163;0.000;0.000;2023-09-12T07:04:02;23.40;91.50
47414;DHT22;33163;0.000;0.000;2023-09-12T07:06:29;23.40;91.50
47414;DHT22;33163;0.000;0.000;2023-09-12T07:08:56;23.40;91.60
47414;DHT22;33163;0.000;0.000;2023-09-12T07:11:24;23.40;91.50
47414;DHT22;33163;0.000;0.000;2023-09-12T07:13:51;23.40;91.60
47414;DHT22;33163;0.000;0.000;2023-09-12T07:16:17;23.40;91.70
47414;DHT22;33163;0.000;0.000;2023-09-12T07:18:45;23.40;91.80
47414;DHT22;33163;0.000;0.000;2023-09-12T07:21:12;23.40;91.90
47414;DHT22;33163;0.000;0.000;2023-09-12T07:23:39;23.30;91.90
47414;DHT22;33163;0.000;0.000;2023-09-12T07:26:06;23.30;92.00
47414;DHT22;33163;0.000;0.000;2023-09-12T07:28:39;23.30;92.10
47414;DHT22;33163;0.000;0.000;2023-09-12T07:31:06;23.30;92.00
47414;DHT22;33163;0.000;0.000;2023-09-12T07:33:32;23.30;92.00
47414;DHT22;33163;0.000;0.000;2023-09-12T07:35:59;23.30;92.00
47414;DHT22;33163;0.000;0.000;2023-09-12T07:38:28;23.40;91.90
47414;DHT22;33163;0.000;0.000;2023-09-12T07:40:56;23.50;91.90
47414;DHT22;33163;0.000;0.000;2023-09-12T07:43:23;23.50;91.80
47414;DHT22;33163;0.000;0.000;2023-09-12T07:45:55;23.50;91.80
47414;DHT22;33163;0.000;0.000;2023-09-12T07:48:21;23.60;91.80
47414;DHT22;33163;0.000;0.000;2023-09-12T07:50:48;23.60;91.70
47414;DHT22;33163;0.000;0.000;2023-09-12T07:53:17;23.60;91.70
47414;DHT22;33163;0.000;0.000;2023-09-12T07:55:44;23.60;91.90
47414;DHT22;33163;0.000;0.000;2023-09-12T07:58:12;23.60;91.50
47414;DHT22;33163;0.000;0.000;2023-09-12T08:00:39;23.60;91.40
47414;DHT22;33163;0.000;0.000;2023-09-12T08:03:07;23.70;91.40
47414;DHT22;33163;0.000;0.000;2023-09-12T08:05:34;23.70;91.30
47414;DHT22;33163;0.000;0.000;2023-09-12T08:08:01;23.70;91.20
47414;DHT22;33163;0.000;0.000;2023-09-12T08:10:28;23.80;91.20
47414;DHT22;33163;0.000;0.000;2023-09-12T08:12:55;23.80;91.20
47414;DHT22;33163;0.000;0.000;2023-09-12T08:15:22;23.90;91.20
47414;DHT22;33163;0.000;0.000;2023-09-12T08:17:49;23.90;91.00
47414;DHT22;33163;0.000;0.000;2023-09-12T08:20:19;24.00;91.00
47414;DHT22;33163;0.000;0.000;2023-09-12T08:22:45;24.00;91.30
47414;DHT22;33163;0.000;0.000;2023-09-12T08:25:12;24.00;91.30
47414;DHT22;33163;0.000;0.000;2023-09-12T08:27:40;24.00;91.10
47414;DHT22;33163;0.000;0.000;2023-09-12T08:30:08;24.00;91.30
47414;DHT22;33163;0.000;0.000;2023-09-12T08:32:35;24.00;91.30
47414;DHT22;33163;0.000;0.000;2023-09-12T08:35:05;24.00;91.30
47414;DHT22;33163;0.000;0.000;2023-09-12T08:37:33;24.00;91.20
47414;DHT22;33163;0.000;0.000;2023-09-12T08:40:01;24.10;91.20
47414;DHT22;33163;0.000;0.000;2023-09-12T08:42:38;24.10;91.10
47414;DHT22;33163;0.000;0.000;2023-09-12T08:45:08;24.20;91.10
47414;DHT22;33163;0.000;0.000;2023-09-12T08:47:39;24.20;91.00
47414;DHT22;33163;0.000;0.000;2023-09-12T08:50:09;24.20;90.90
47414;DHT22;33163;0.000;0.000;2023-09-12T08:52:37;24.20;91.00
47414;DHT22;33163;0.000;0.000;2023-09-12T08:55:05;24.20;90.90
47414;DHT22;33163;0.000;0.000;2023-09-12T08:57:33;24.30;91.00
47414;DHT22;33163;0.000;0.000;2023-09-12T09:00:00;24.20;90.90
47414;DHT22;33163;0.000;0.000;2023-09-12T09:02:30;24.30;91.00
47414;DHT22;33163;0.000;0.000;2023-09-12T09:04:57;24.20;90.90
47414;DHT22;33163;0.000;0.000;2023-09-12T09:07:25;24.20;90.90
47414;DHT22;33163;0.000;0.000;2023-09-12T09:09:54;24.20;90.80
47414;DHT22;33163;0.000;0.000;2023-09-12T09:12:22;24.30;90.70
47414;DHT22;33163;0.000;0.000;2023-09-12T09:14:49;24.30;90.70
47414;DHT22;33163;0.000;0.000;2023-09-12T09:17:15;24.30;90.70
47414;DHT22;33163;0.000;0.000;2023-09-12T09:19:43;24.40;90.70
47414;DHT22;33163;0.000;0.000;2023-09-12T09:22:11;24.40;90.70
47414;DHT22;33163;0.000;0.000;2023-09-12T09:24:38;24.40;90.70
47414;DHT22;33163;0.000;0.000;2023-09-12T09:27:06;24.40;90.60
47414;DHT22;33163;0.000;0.000;2023-09-12T09:29:45;24.40;90.60
47414;DHT22;33163;0.000;0.000;2023-09-12T09:32:17;24.50;90.50
47414;DHT22;33163;0.000;0.000;2023-09-12T09:34:47;24.50;90.80
47414;DHT22;33163;0.000;0.000;2023-09-12T09:37:13;24.50;90.50
47414;DHT22;33163;0.000;0.000;2023-09-12T09:39:41;24.50;90.50
47414;DHT22;33163;0.000;0.000;2023-09-12T09:42:11;24.50;90.50
47414;DHT22;33163;0.000;0.000;2023-09-12T09:44:38;24.50;90.50
47414;DHT22;33163;0.000;0.000;2023-09-12T09:47:05;24.50;90.50
47414;DHT22;33163;0.000;0.000;2023-09-12T09:49:32;24.50;90.40
47414;DHT22;33163;0.000;0.000;2023-09-12T09:51:59;24.50;90.40
47414;DHT22;33163;0.000;0.000;2023-09-12T09:54:29;24.50;90.30
47414;DHT22;33163;0.000;0.000;2023-09-12T09:56:57;24.50;90.30
47414;DHT22;33163;0.000;0.000;2023-09-12T09:59:26;24.60;90.30
47414;DHT22;33163;0.000;0.000;2023-09-12T10:01:58;24.60;90.30
47414;DHT22;33163;0.000;0.000;2023-09-12T10:04:27;24.60;90.30
47414;DHT22;33163;0.000;0.000;2023-09-12T10:06:56;24.50;90.20
47414;DHT22;33163;0.000;0.000;2023-09-12T10:09:26;24.50;90.20
47414;DHT22;33163;0.000;0.000;2023-09-12T10:11:55;24.60;90.30
47414;DHT22;33163;0.000;0.000;2023-09-12T10:14:23;24.60;90.30
47414;DHT22;33163;0.000;0.000;2023-09-12T10:16:56;24.60;90.20
47414;DHT22;33163;0.000;0.000;2023-09-12T10:19:25;24.60;90.20
47414;DHT22;33163;0.000;0.000;2023-09-12T10:21:58;24.60;90.20
47414;DHT22;33163;0.000;0.000;2023-09-12T10:24:31;24.50;90.10
47414;DHT22;33163;0.000;0.000;2023-09-12T10:27:00;24.50;90.20
47414;DHT22;33163;0.000;0.000;2023-09-12T10:29:28;24.50;90.20
47414;DHT22;33163;0.000;0.000;2023-09-12T10:31:56;24.50;90.10
47414;DHT22;33163;0.000;0.000;2023-09-12T10:34:25;24.50;90.10
47414;DHT22;33163;0.000;0.000;2023-09-12T10:36:55;24.50;90.40
47414;DHT22;33163;0.000;0.000;2023-09-12T10:39:27;24.50;90.10
47414;DHT22;33163;0.000;0.000;2023-09-12T10:41:55;24.50;90.10
47414;DHT22;33163;0.000;0.000;2023-09-12T10:44:23;24.50;90.10
47414;DHT22;33163;0.000;0.000;2023-09-12T10:46:51;24.50;90.10
47414;DHT22;33163;0.000;0.000;2023-09-12T10:49:21;24.50;90.10
47414;DHT22;33163;0.000;0.000;2023-09-12T10:51:48;24.50;90.10
47414;DHT22;33163;0.000;0.000;2023-09-12T10:54:23;24.50;90.10
47414;DHT22;33163;0.000;0.000;2023-09-12T10:57:02;24.50;90.10
47414;DHT22;33163;0.000;0.000;2023-09-12T10:59:29;24.50;90.00
47414;DHT22;33163;0.000;0.000;2023-09-12T11:02:26;24.50;90.10
47414;DHT22;33163;0.000;0.000;2023-09-12T11:04:55;24.50;90.00
47414;DHT22;33163;0.000;0.000;2023-09-12T11:07:45;24.50;90.10
47414;DHT22;33163;0.000;0.000;2023-09-12T11:10:21;24.50;90.00
47414;DHT22;33163;0.000;0.000;2023-09-12T11:12:49;24.50;90.00
47414;DHT22;33163;0.000;0.000;2023-09-12T11:15:17;24.50;90.30
47414;DHT22;33163;0.000;0.000;2023-09-12T11:17:44;24.40;90.00
47414;DHT22;33163;0.000;0.000;2023-09-12T11:20:14;24.40;90.00
47414;DHT22;33163;0.000;0.000;2023-09-12T11:22:42;24.50;90.10
47414;DHT22;33163;0.000;0.000;2023-09-12T11:25:16;24.50;90.10
47414;DHT22;33163;0.000;0.000;2023-09-12T11:27:45;24.50;90.10
47414;DHT22;33163;0.000;0.000;2023-09-12T11:30:28;24.50;90.10
47414;DHT22;33163;0.000;0.000;2023-09-12T11:32:56;24.40;90.10
47414;DHT22;33163;0.000;0.000;2023-09-12T11:35:26;24.40;90.10
47414;DHT22;33163;0.000;0.000;2023-09-12T11:37:54;24.50;90.10
47414;DHT22;33163;0.000;0.000;2023-09-12T11:40:24;24.50;90.10
47414;DHT22;33163;0.000;0.000;2023-09-12T11:42:51;24.50;90.10
47414;DHT22;33163;0.000;0.000;2023-09-12T11:45:19;24.40;90.10
47414;DHT22;33163;0.000;0.000;2023-09-12T11:47:47;24.40;90.10
47414;DHT22;33163;0.000;0.000;2023-09-12T11:50:28;24.40;90.10
47414;DHT22;33163;0.000;0.000;2023-09-12T11:52:59;24.40;90.10
47414;DHT22;33163;0.000;0.000;2023-09-12T11:55:26;24.40;90.10
47414;DHT22;33163;0.000;0.000;2023-09-12T11:57:55;24.40;90.40
47414;DHT22;33163;0.000;0.000;2023-09-12T12:00:23;24.50;90.20
47414;DHT22;33163;0.000;0.000;2023-09-12T12:02:51;24.50;90.20
47414;DHT22;33163;0.000;0.000;2023-09-12T12:05:18;24.50;90.20
47414;DHT22;33163;0.000;0.000;2023-09-12T12:07:48;24.50;90.20
47414;DHT22;33163;0.000;0.000;2023-09-12T12:10:15;24.50;90.30
47414;DHT22;33163;0.000;0.000;2023-09-12T12:12:43;24.50;90.20
47414;DHT22;33163;0.000;0.000;2023-09-12T12:15:11;24.50;90.20
47414;DHT22;33163;0.000;0.000;2023-09-12T12:17:40;24.50;90.20
47414;DHT22;33163;0.000;0.000;2023-09-12T12:20:08;24.50;90.20
47414;DHT22;33163;0.000;0.000;2023-09-12T12:22:36;24.50;90.20
47414;DHT22;33163;0.000;0.000;2023-09-12T12:25:07;24.50;90.20
47414;DHT22;33163;0.000;0.000;2023-09-12T12:27:36;24.50;90.30
47414;DHT22;33163;0.000;0.000;2023-09-12T12:30:04;24.50;90.30
47414;DHT22;33163;0.000;0.000;2023-09-12T12:32:31;24.50;90.20
47414;DHT22;33163;0.000;0.000;2023-09-12T12:34:58;24.50;90.20
47414;DHT22;33163;0.000;0.000;2023-09-12T12:37:28;24.50;90.30
47414;DHT22;33163;0.000;0.000;2023-09-12T12:39:57;24.50;90.30
47414;DHT22;33163;0.000;0.000;2023-09-12T12:42:25;24.50;90.30
47414;DHT22;33163;0.000;0.000;2023-09-12T12:44:55;24.50;90.30
47414;DHT22;33163;0.000;0.000;2023-09-12T12:47:22;24.50;90.30
47414;DHT22;33163;0.000;0.000;2023-09-12T12:49:51;24.50;90.20
47414;DHT22;33163;0.000;0.000;2023-09-12T12:52:22;24.50;90.30
47414;DHT22;33163;0.000;0.000;2023-09-12T12:54:50;24.50;90.30
47414;DHT22;33163;0.000;0.000;2023-09-12T12:57:18;24.50;90.30
47414;DHT22;33163;0.000;0.000;2023-09-12T12:59:47;24.50;90.30
47414;DHT22;33163;0.000;0.000;2023-09-12T13:02:15;24.50;90.20
47414;DHT22;33163;0.000;0.000;2023-09-12T13:04:42;24.50;90.20
47414;DHT22;33163;0.000;0.000;2023-09-12T13:07:09;24.50;90.20
47414;DHT22;33163;0.000;0.000;2023-09-12T13:09:36;24.50;90.20
47414;DHT22;33163;0.000;0.000;2023-09-12T13:12:05;24.50;90.20
47414;DHT22;33163;0.000;0.000;2023-09-12T13:14:32;24.50;90.20
47414;DHT22;33163;0.000;0.000;2023-09-12T13:17:00;24.40;90.20
47414;DHT22;33163;0.000;0.000;2023-09-12T13:19:28;24.50;90.20
47414;DHT22;33163;0.000;0.000;2023-09-12T13:21:55;24.50;90.20
47414;DHT22;33163;0.000;0.000;2023-09-12T13:24:22;24.50;90.20
47414;DHT22;33163;0.000;0.000;2023-09-12T13:26:48;24.50;90.20
47414;DHT22;33163;0.000;0.000;2023-09-12T13:29:15;24.40;90.20
47414;DHT22;33163;0.000;0.000;2023-09-12T13:31:42;24.50;90.20
47414;DHT22;33163;0.000;0.000;2023-09-12T13:34:10;24.50;90.20
47414;DHT22;33163;0.000;0.000;2023-09-12T13:36:37;24.40;90.20
47414;DHT22;33163;0.000;0.000;2023-09-12T13:39:04;24.50;90.30
47414;DHT22;33163;0.000;0.000;2023-09-12T13:41:32;24.40;90.20
47414;DHT22;33163;0.000;0.000;2023-09-12T13:43:58;24.50;90.20
47414;DHT22;33163;0.000;0.000;2023-09-12T13:46:25;24.50;90.20
47414;DHT22;33163;0.000;0.000;2023-09-12T13:48:52;24.40;90.20
47414;DHT22;33163;0.000;0.000;2023-09-12T13:51:20;24.40;90.20
47414;DHT22;33163;0.000;0.000;2023-09-12T13:53:47;24.50;90.20
47414;DHT22;33163;0.000;0.000;2023-09-12T13:56:13;24.50;90.20
47414;DHT22;33163;0.000;0.000;2023-09-12T13:58:40;24.50;90.20
47414;DHT22;33163;0.000;0.000;2023-09-12T14:01:07;24.40;90.10
47414;DHT22;33163;0.000;0.000;2023-09-12T14:03:34;24.50;90.20
47414;DHT22;33163;0.000;0.000;2023-09-12T14:06:00;24.40;90.20
47414;DHT22;33163;0.000;0.000;2023-09-12T14:08:29;24.40;90.20
47414;DHT22;33163;0.000;0.000;2023-09-12T14:10:55;24.40;90.10
47414;DHT22;33163;0.000;0.000;2023-09-12T14:13:22;24.40;90.20
47414;DHT22;33163;0.000;0.000;2023-09-12T14:15:49;24.40;90.10
47414;DHT22;33163;0.000;0.000;2023-09-12T14:18:16;24.40;90.20
47414;DHT22;33163;0.000;0.000;2023-09-12T14:20:43;24.40;90.20
47414;DHT22;33163;0.000;0.000;2023-09-12T14:23:10;24.40;90.20
47414;DHT22;33163;0.000;0.000;2023-09-12T14:25:38;24.40;90.20
47414;DHT22;33163;0.000;0.000;2023-09-12T14:28:05;24.40;90.20
47414;DHT22;33163;0.000;0.000;2023-09-12T14:30:32;24.40;90.20
47414;DHT22;33163;0.000;0.000;2023-09-12T14:33:01;24.40;90.10
47414;DHT22;33163;0.000;0.000;2023-09-12T14:35:28;24.40;90.20
47414;DHT22;33163;0.000;0.000;2023-09-12T14:37:54;24.40;90.20
47414;DHT22;33163;0.000;0.000;2023-09-12T14:40:23;24.40;90.10
47414;DHT22;33163;0.000;0.000;2023-09-12T14:42:51;24.40;90.20
47414;DHT22;33163;0.000;0.000;2023-09-12T14:45:18;24.40;90.20
47414;DHT22;33163;0.000;0.000;2023-09-12T14:47:44;24.40;90.20
47414;DHT22;33163;0.000;0.000;2023-09-12T14:50:11;24.40;90.20
47414;DHT22;33163;0.000;0.000;2023-09-12T14:52:38;24.40;90.20
47414;DHT22;33163;0.000;0.000;2023-09-12T14:55:06;24.40;90.20
47414;DHT22;33163;0.000;0.000;2023-09-12T14:57:34;24.40;90.20
47414;DHT22;33163;0.000;0.000;2023-09-12T15:00:03;24.40;90.20
47414;DHT22;33163;0.000;0.000;2023-09-12T15:02:30;24.50;90.20
47414;DHT22;33163;0.000;0.000;2023-09-12T15:04:58;24.40;90.10
47414;DHT22;33163;0.000;0.000;2023-09-12T15:07:24;24.40;90.10
47414;DHT22;33163;0.000;0.000;2023-09-12T15:09:51;24.40;90.10
47414;DHT22;33163;0.000;0.000;2023-09-12T15:12:18;24.40;90.10
47414;DHT22;33163;0.000;0.000;2023-09-12T15:14:45;24.40;90.10
47414;DHT22;33163;0.000;0.000;2023-09-12T15:17:13;24.40;90.10
47414;DHT22;33163;0.000;0.000;2023-09-12T15:19:39;24.40;90.10
47414;DHT22;33163;0.000;0.000;2023-09-12T15:22:06;24.40;90.10
47414;DHT22;33163;0.000;0.000;2023-09-12T15:24:33;24.40;90.10
47414;DHT22;33163;0.000;0.000;2023-09-12T15:27:00;24.40;90.10
47414;DHT22;33163;0.000;0.000;2023-09-12T15:29:27;24.50;90.10
47414;DHT22;33163;0.000;0.000;2023-09-12T15:31:54;24.50;90.10
47414;DHT22;33163;0.000;0.000;2023-09-12T15:34:22;24.40;90.10
47414;DHT22;33163;0.000;0.000;2023-09-12T15:36:49;24.40;90.40
47414;DHT22;33163;0.000;0.000;2023-09-12T15:39:15;24.40;90.10
47414;DHT22;33163;0.000;0.000;2023-09-12T15:41:42;24.40;90.10
47414;DHT22;33163;0.000;0.000;2023-09-12T15:44:09;24.50;90.20
47414;DHT22;33163;0.000;0.000;2023-09-12T15:46:36;24.40;90.10
47414;DHT22;33163;0.000;0.000;2023-09-12T15:49:03;24.40;90.20